Time;durP1;ratioP1;P1;durP2;ratioP2;P2;SDS_P1;SDS_P2;PMS_P1;PMS_P2;Temp;Humidity;BMP_temperature;BMP_pressure;BME280_temperature;BME280_humidity;BME280_pressure;Samples;Min_cycle;Max_cycle;Signal;HPM_P1;HPM_P2
2022/03/20 00:00:25;;;;;;;;;4.00;3.50;;;;;12.83;35.78;102418.41;4993930;28;45317;-72
2022/03/20 00:02:51;;;;;;;;;3.75;3.00;;;;;12.84;35.49;102422.81;5005425;28;45691;-76
2022/03/20 00:05:17;;;;;;;;;3.75;3.75;;;;;12.83;35.42;102415.81;5013320;28;45240;-75
2022/03/20 00:07:44;;;;;;;;;4.50;4.00;;;;;12.79;35.22;102416.44;5013587;27;45226;-75
2022/03/20 00:10:11;;;;;;;;;3.25;3.00;;;;;12.79;35.78;102416.44;5011407;28;46389;-72
2022/03/20 00:12:37;;;;;;;;;5.75;2.75;;;;;12.79;35.46;102411.25;4977442;28;45407;-71
2022/03/20 00:15:04;;;;;;;;;4.75;4.25;;;;;12.80;35.71;102413.94;4982554;28;45360;-72
2022/03/20 00:17:30;;;;;;;;;3.75;3.75;;;;;12.82;35.92;102419.22;4991602;28;45568;-73
2022/03/20 00:19:56;;;;;;;;;6.00;5.00;;;;;12.73;35.77;102416.97;4982657;28;45443;-72
2022/03/20 00:22:23;;;;;;;;;4.00;4.00;;;;;12.74;36.21;102413.53;4978014;28;45767;-72
2022/03/20 00:24:49;;;;;;;;;4.00;3.00;;;;;12.60;36.25;102393.63;4993299;28;45449;-74
2022/03/20 00:27:16;;;;;;;;;6.00;4.00;;;;;12.64;36.52;102403.38;5006823;28;45705;-75
2022/03/20 00:29:42;;;;;;;;;4.50;3.00;;;;;12.51;36.11;102389.66;4996824;28;45430;-76
2022/03/20 00:32:11;;;;;;;;;4.00;4.00;;;;;12.59;36.36;102421.28;4992262;28;45377;-75
2022/03/20 00:34:38;;;;;;;;;5.75;4.25;;;;;12.51;36.62;102405.25;4992229;27;45240;-78
2022/03/20 00:37:08;;;;;;;;;4.00;4.00;;;;;12.48;36.69;102412.84;4992812;28;45532;-75
2022/03/20 00:39:35;;;;;;;;;6.25;5.00;;;;;12.50;37.04;102418.13;4991695;28;45340;-75
2022/03/20 00:42:00;;;;;;;;;3.75;3.75;;;;;12.48;37.32;102422.31;4995093;28;45467;-81
2022/03/20 00:44:26;;;;;;;;;3.00;3.00;;;;;12.45;37.33;102412.63;4994974;28;45345;-75
2022/03/20 00:46:52;;;;;;;;;3.00;3.00;;;;;12.47;37.05;102403.25;5003337;28;45428;-71
2022/03/20 00:49:18;;;;;;;;;4.50;3.25;;;;;12.42;36.99;102411.53;4996243;27;45472;-70
2022/03/20 00:51:44;;;;;;;;;3.50;3.25;;;;;12.23;37.08;102380.09;4997978;27;45520;-70
2022/03/20 00:54:11;;;;;;;;;5.75;3.00;;;;;12.29;36.92;102389.09;4995611;28;45751;-71
2022/03/20 00:56:38;;;;;;;;;4.00;3.00;;;;;12.32;36.94;102399.66;5008052;28;45546;-70
2022/03/20 00:59:04;;;;;;;;;3.00;2.50;;;;;12.20;37.06;102387.69;4992897;28;45797;-71
2022/03/20 01:01:31;;;;;;;;;2.00;2.00;;;;;12.20;37.20;102394.59;5010311;27;45525;-70
2022/03/20 01:03:57;;;;;;;;;2.00;2.00;;;;;12.14;37.20;102392.50;4996826;28;45525;-70
2022/03/20 01:06:22;;;;;;;;;1.00;0.50;;;;;12.11;37.35;102389.72;5008539;27;45277;-70
2022/03/20 01:08:49;;;;;;;;;2.00;2.00;;;;;12.10;37.35;102392.22;4997065;28;45410;-70
2022/03/20 01:11:16;;;;;;;;;3.00;2.75;;;;;12.05;37.34;102386.72;4999496;27;45499;-73
2022/03/20 01:13:43;;;;;;;;;4.50;2.00;;;;;12.05;37.54;102385.03;5014614;27;45287;-70
2022/03/20 01:16:08;;;;;;;;;5.00;3.00;;;;;12.04;37.45;102391.00;5014490;28;45714;-71
2022/03/20 01:18:34;;;;;;;;;1.25;1.25;;;;;11.98;37.76;102382.84;4999807;27;46028;-71
2022/03/20 01:21:01;;;;;;;;;3.75;3.00;;;;;11.96;37.75;102386.13;4987557;28;45577;-73
2022/03/20 01:23:26;;;;;;;;;2.50;2.50;;;;;11.92;37.64;102380.72;4995159;28;45362;-71
2022/03/20 01:25:52;;;;;;;;;3.00;2.00;;;;;11.93;38.01;102373.84;4995822;28;45604;-71
2022/03/20 01:28:19;;;;;;;;;3.00;3.00;;;;;11.88;37.89;102373.53;5007487;28;45288;-71
2022/03/20 01:30:47;;;;;;;;;3.00;2.00;;;;;11.84;38.14;102375.81;5011770;27;45366;-70
2022/03/20 01:33:14;;;;;;;;;3.00;3.00;;;;;11.74;38.24;102366.56;4994558;28;45315;-75
2022/03/20 01:35:40;;;;;;;;;6.75;3.00;;;;;11.72;38.15;102366.44;4995007;28;45744;-73
2022/03/20 01:38:05;;;;;;;;;4.00;3.00;;;;;11.71;38.26;102371.53;5006184;28;45393;-71
2022/03/20 01:40:31;;;;;;;;;2.25;2.25;;;;;11.73;38.57;102365.63;4999300;28;45372;-71
2022/03/20 01:42:57;;;;;;;;;4.00;2.75;;;;;11.67;38.44;102375.63;5013939;27;45331;-72
2022/03/20 01:45:24;;;;;;;;;2.75;2.75;;;;;11.57;38.80;102381.00;5012648;28;45338;-70
2022/03/20 01:47:51;;;;;;;;;3.50;3.25;;;;;11.56;38.93;102381.81;4995499;28;45343;-71
2022/03/20 01:50:18;;;;;;;;;6.50;3.00;;;;;11.52;39.04;102365.16;4999370;27;45422;-73
2022/03/20 01:52:49;;;;;;;;;2.75;2.75;;;;;11.43;38.94;102359.34;4995118;28;45188;-70
2022/03/20 01:55:16;;;;;;;;;4.00;3.00;;;;;11.40;39.00;102361.75;5005716;28;45808;-70
2022/03/20 01:57:44;;;;;;;;;3.50;3.50;;;;;11.34;39.36;102358.75;5005552;27;45327;-70
2022/03/20 02:00:12;;;;;;;;;4.25;3.00;;;;;11.35;39.49;102360.53;4997325;28;45235;-72
2022/03/20 02:02:38;;;;;;;;;3.25;2.50;;;;;11.33;39.98;102369.91;5011809;27;45251;-71
2022/03/20 02:05:06;;;;;;;;;2.75;2.00;;;;;11.25;39.83;102349.53;5009231;27;45413;-71
2022/03/20 02:07:37;;;;;;;;;2.00;2.00;;;;;11.29;39.85;102355.81;5007634;27;45329;-70
2022/03/20 02:10:09;;;;;;;;;4.50;2.00;;;;;11.25;40.11;102353.84;4978595;28;45365;-70
2022/03/20 02:12:36;;;;;;;;;5.25;3.25;;;;;11.29;40.40;102355.81;5007356;28;45532;-71
2022/03/20 02:15:04;;;;;;;;;4.00;2.00;;;;;11.22;40.27;102349.34;4999706;28;45559;-71
2022/03/20 02:17:30;;;;;;;;;2.00;2.00;;;;;11.17;40.75;102339.47;5007987;27;46208;-71
2022/03/20 02:19:57;;;;;;;;;3.25;2.00;;;;;11.18;40.69;102339.56;4999859;28;45341;-71
2022/03/20 02:22:24;;;;;;;;;2.00;2.00;;;;;11.13;40.96;102334.06;5000173;28;45377;-70
2022/03/20 02:24:51;;;;;;;;;4.00;1.75;;;;;11.13;41.18;102336.66;4993783;28;45578;-74
2022/03/20 02:27:23;;;;;;;;;3.00;2.00;;;;;11.13;41.09;102334.06;5002391;28;45291;-69
2022/03/20 02:29:54;;;;;;;;;4.75;2.50;;;;;11.10;41.30;102325.19;4995983;28;45827;-71
2022/03/20 02:32:23;;;;;;;;;4.00;3.00;;;;;11.08;41.42;102322.47;4994066;28;45309;-71
2022/03/20 02:34:50;;;;;;;;;1.75;1.75;;;;;11.06;41.72;102318.91;4994402;28;45991;-70
2022/03/20 02:37:21;;;;;;;;;2.75;2.00;;;;;11.03;42.11;102315.19;5010147;28;46173;-71
2022/03/20 02:39:47;;;;;;;;;5.00;2.50;;;;;11.02;42.33;102321.16;5011761;28;45938;-74
2022/03/20 02:42:14;;;;;;;;;2.25;2.25;;;;;11.02;42.37;102319.50;5001236;28;45485;-73
2022/03/20 02:44:52;;;;;;;;;4.00;2.00;;;;;10.98;42.71;102315.81;4994283;28;45633;-74
2022/03/20 02:47:23;;;;;;;;;2.00;2.00;;;;;10.93;42.40;102311.09;4996389;28;45216;-75
2022/03/20 02:49:53;;;;;;;;;3.50;3.50;;;;;10.88;42.95;102315.06;5000706;28;45873;-73
2022/03/20 02:52:31;;;;;;;;;4.25;2.25;;;;;10.86;42.95;102312.38;4993844;27;45390;-73
2022/03/20 02:55:01;;;;;;;;;3.75;2.50;;;;;10.86;43.47;102309.78;4993976;28;45465;-76
2022/03/20 02:57:28;;;;;;;;;2.00;2.00;;;;;10.83;43.37;102301.78;4996279;28;46162;-73
2022/03/20 02:59:53;;;;;;;;;5.25;3.00;;;;;10.77;43.49;102304.88;4993710;28;45412;-73
2022/03/20 03:02:19;;;;;;;;;3.50;3.25;;;;;10.71;43.62;102294.09;4997607;28;45416;-73
2022/03/20 03:04:45;;;;;;;;;4.00;3.00;;;;;10.73;43.79;102289.94;4994261;28;45322;-72
2022/03/20 03:07:10;;;;;;;;;2.75;2.50;;;;;10.74;43.81;102291.72;4996066;28;45461;-73
2022/03/20 03:12:21;;;;;;;;;5.00;3.25;;;;;10.66;44.21;102288.59;4993756;28;45433;-74
2022/03/20 03:17:31;;;;;;;;;3.00;2.50;;;;;10.64;44.60;102286.69;5009355;28;45669;-71
2022/03/20 03:19:57;;;;;;;;;4.75;4.00;;;;;10.65;44.66;102285.91;4997973;28;45388;-69
2022/03/20 03:22:26;;;;;;;;;5.00;2.50;;;;;10.65;44.49;102283.31;5000456;27;45314;-70
2022/03/20 03:24:56;;;;;;;;;5.50;4.00;;;;;10.64;44.49;102278.91;4993508;28;45485;-70
2022/03/20 03:27:22;;;;;;;;;4.75;2.75;;;;;10.61;44.75;102287.38;4992041;28;45476;-70
2022/03/20 03:29:47;;;;;;;;;4.00;4.00;;;;;10.53;44.85;102279.09;4993527;28;45513;-69
2022/03/20 03:32:13;;;;;;;;;4.75;4.00;;;;;10.51;44.88;102275.50;4993408;27;45473;-71
2022/03/20 03:37:23;;;;;;;;;6.00;5.00;;;;;10.45;44.97;102277.66;4993239;28;45869;-69
2022/03/20 03:39:49;;;;;;;;;3.50;2.00;;;;;10.47;45.42;102273.50;4993152;28;45488;-70
2022/03/20 03:42:15;;;;;;;;;4.75;4.75;;;;;10.43;45.17;102276.66;4975840;28;45361;-69
2022/03/20 03:44:41;;;;;;;;;3.50;3.50;;;;;10.49;45.29;102271.00;4993636;28;45398;-69
2022/03/20 03:47:07;;;;;;;;;4.75;4.00;;;;;10.44;45.43;102270.69;4992895;27;45275;-70
2022/03/20 03:49:33;;;;;;;;;5.00;5.00;;;;;10.46;45.76;102276.88;4993096;28;45461;-69
2022/03/20 03:52:01;;;;;;;;;6.00;4.25;;;;;10.43;45.51;102263.72;4975446;28;45508;-69
2022/03/20 03:54:27;;;;;;;;;5.50;3.75;;;;;10.47;45.65;102272.63;4993355;28;45582;-69
2022/03/20 03:56:52;;;;;;;;;2.75;2.75;;;;;10.40;45.73;102268.69;4992654;28;46088;-69
2022/03/20 03:59:18;;;;;;;;;4.50;3.50;;;;;10.34;46.23;102265.63;4993278;28;45320;-72
2022/03/20 04:01:44;;;;;;;;;4.50;3.00;;;;;10.30;46.04;102255.88;4993486;28;46083;-71
2022/03/20 04:04:09;;;;;;;;;4.00;3.00;;;;;10.31;46.58;102263.75;4993120;28;45277;-71
2022/03/20 04:06:35;;;;;;;;;5.50;3.75;;;;;10.34;46.77;102268.22;4992861;28;46045;-70
2022/03/20 04:09:00;;;;;;;;;5.00;5.00;;;;;10.31;46.45;102248.22;4992433;28;45489;-69
2022/03/20 04:11:27;;;;;;;;;3.75;3.75;;;;;10.38;46.38;102263.41;4992903;28;45373;-69
2022/03/20 04:13:52;;;;;;;;;6.75;5.00;;;;;10.33;46.48;102259.56;4992928;28;45414;-71
2022/03/20 04:16:18;;;;;;;;;5.75;5.25;;;;;10.18;46.85;102249.06;4991528;28;46319;-69
2022/03/20 04:18:44;;;;;;;;;6.00;5.25;;;;;10.16;47.08;102250.63;4992801;28;45418;-70
2022/03/20 04:21:10;;;;;;;;;5.50;5.50;;;;;10.14;47.32;102257.38;4992385;27;45318;-72
2022/03/20 04:26:12;;;;;;;;;5.00;5.00;;;;;10.00;47.90;102261.59;4992039;28;45719;-72
2022/03/20 04:28:37;;;;;;;;;6.00;6.00;;;;;9.97;48.33;102269.13;4992541;28;45556;-71
2022/03/20 04:31:03;;;;;;;;;7.00;5.25;;;;;9.94;48.43;102268.91;4992181;28;45253;-71
2022/03/20 04:33:31;;;;;;;;;7.00;6.50;;;;;9.95;48.69;102269.81;4992892;28;46028;-72
2022/03/20 04:35:58;;;;;;;;;6.00;5.00;;;;;9.94;48.92;102268.91;4992071;28;46201;-73
2022/03/20 04:38:23;;;;;;;;;6.00;6.00;;;;;9.94;49.26;102273.19;4976733;28;45942;-71
2022/03/20 04:40:50;;;;;;;;;4.00;4.00;;;;;9.96;49.21;102271.63;4977642;28;45414;-76
2022/03/20 04:43:17;;;;;;;;;5.25;5.00;;;;;10.00;49.37;102274.53;4996529;28;45483;-73
2022/03/20 04:45:44;;;;;;;;;6.50;4.50;;;;;10.00;49.27;102278.78;4996387;28;45292;-73
2022/03/20 04:59:05;;;;;;;;;7.75;7.75;;;;;10.07;50.63;102262.94;5016338;28;45859;-71
2022/03/20 05:01:31;;;;;;;;;8.00;8.00;;;;;10.10;50.36;102264.81;5019501;28;45365;-74
2022/03/20 05:03:56;;;;;;;;;9.25;6.00;;;;;10.09;49.83;102257.84;5014304;28;45500;-74
2022/03/20 05:06:22;;;;;;;;;7.25;6.50;;;;;10.04;49.28;102262.72;4995389;28;45813;-74
2022/03/20 05:08:47;;;;;;;;;5.00;4.00;;;;;9.96;50.39;102271.63;4996479;27;45379;-75
2022/03/20 05:13:57;;;;;;;;;7.50;6.25;;;;;9.86;50.68;102259.72;4997449;28;45268;-74
2022/03/20 05:16:23;;;;;;;;;9.25;7.25;;;;;9.77;50.82;102249.63;4982348;28;45407;-71
2022/03/20 05:18:48;;;;;;;;;10.00;8.75;;;;;9.83;51.41;102260.41;4995108;28;45415;-70
2022/03/20 05:21:14;;;;;;;;;10.25;7.00;;;;;9.80;50.84;102255.00;4995224;28;45239;-71
2022/03/20 05:23:40;;;;;;;;;11.75;7.75;;;;;9.83;51.72;102262.06;5011115;28;45621;-78
2022/03/20 05:26:05;;;;;;;;;15.00;11.25;;;;;9.76;51.86;102246.13;5008361;27;45432;-78
2022/03/20 05:28:31;;;;;;;;;6.75;5.00;;;;;9.80;52.06;102244.66;5012106;28;45508;-79
2022/03/20 05:30:57;;;;;;;;;12.00;11.25;;;;;9.88;52.29;102250.38;5014020;27;45393;-74
2022/03/20 05:33:23;;;;;;;;;12.25;8.00;;;;;9.95;51.81;102256.88;5013067;27;45585;-72
2022/03/20 05:35:49;;;;;;;;;9.25;8.00;;;;;9.98;51.64;102260.59;5014118;27;45624;-70
2022/03/20 05:38:14;;;;;;;;;14.00;10.25;;;;;9.98;51.80;102257.13;5008176;28;45355;-75
2022/03/20 05:40:42;;;;;;;;;11.00;10.25;;;;;9.97;51.94;102251.03;5014423;27;45302;-73
2022/03/20 05:43:10;;;;;;;;;7.00;7.00;;;;;10.02;51.50;102241.00;5014488;28;45398;-75
2022/03/20 05:45:39;;;;;;;;;9.25;7.00;;;;;10.01;51.59;102246.97;5007113;28;46698;-74
2022/03/20 05:48:05;;;;;;;;;7.50;7.25;;;;;9.98;51.32;102234.72;4994593;28;45970;-72
2022/03/20 05:50:31;;;;;;;;;5.50;4.50;;;;;9.93;51.74;102236.09;4993970;28;45247;-72
2022/03/20 05:52:56;;;;;;;;;12.00;9.25;;;;;9.97;51.70;102245.84;4996086;27;45606;-70
2022/03/20 05:58:01;;;;;;;;;14.50;13.75;;;;;9.99;53.06;102251.16;4994143;28;45527;-69
2022/03/20 05:58:11;;;;;;;;;6.75;6.00;;;;;9.94;51.63;102236.97;4994635;28;45862;-74
2022/03/20 06:00:41;;;;;;;;;8.00;8.00;;;;;9.99;51.59;102253.75;4994415;28;45387;-75
2022/03/20 06:03:07;;;;;;;;;14.25;11.75;;;;;9.85;52.63;102222.63;4994343;28;45493;-75
2022/03/20 06:05:33;;;;;;;;;10.50;8.25;;;;;9.95;51.80;102249.13;5013984;27;45365;-73
2022/03/20 06:07:59;;;;;;;;;6.50;5.75;;;;;9.86;52.01;102249.38;5014035;27;45615;-73
2022/03/20 06:10:25;;;;;;;;;7.00;7.00;;;;;9.83;52.09;102246.56;5014142;28;45390;-73
2022/03/20 06:12:51;;;;;;;;;14.00;13.00;;;;;9.75;52.58;102249.50;5014152;28;45495;-72
2022/03/20 06:15:16;;;;;;;;;7.00;7.00;;;;;9.71;51.88;102244.91;5014311;28;46170;-73
2022/03/20 06:17:46;;;;;;;;;11.50;10.25;;;;;9.71;52.50;102259.53;5014657;28;45290;-72
2022/03/20 06:20:15;;;;;;;;;12.00;11.00;;;;;9.63;52.75;102252.91;5013978;28;45389;-73
2022/03/20 06:22:42;;;;;;;;;14.25;13.25;;;;;9.66;53.55;102263.47;4996640;27;45413;-73
2022/03/20 06:25:09;;;;;;;;;11.25;7.75;;;;;9.62;53.72;102264.03;4995624;27;45453;-73
2022/03/20 06:27:45;;;;;;;;;7.50;7.50;;;;;9.59;53.50;102265.59;5013988;28;45942;-72
2022/03/20 06:30:13;;;;;;;;;12.00;10.75;;;;;9.59;53.66;102275.06;5013870;28;45321;-72
2022/03/20 06:32:40;;;;;;;;;14.50;11.25;;;;;9.60;53.66;102267.41;5014053;27;45276;-72
2022/03/20 06:35:06;;;;;;;;;8.00;8.00;;;;;9.65;53.26;102274.63;5013464;28;46615;-73
2022/03/20 06:37:39;;;;;;;;;10.75;10.75;;;;;9.63;53.06;102271.88;5013841;27;45359;-73
2022/03/20 06:40:07;;;;;;;;;15.00;13.00;;;;;9.60;52.96;102270.00;5013599;28;45407;-73
2022/03/20 06:42:33;;;;;;;;;13.00;10.00;;;;;9.47;53.38;102256.06;5014190;27;45359;-74
2022/03/20 06:44:59;;;;;;;;;13.25;8.00;;;;;9.59;53.48;102272.47;5013296;28;46087;-74
2022/03/20 06:47:26;;;;;;;;;14.75;7.75;;;;;9.61;53.42;102276.03;5013636;27;45860;-74
2022/03/20 06:49:53;;;;;;;;;13.00;6.75;;;;;9.64;53.14;102284.03;5013566;28;45346;-76
2022/03/20 06:52:23;;;;;;;;;21.75;18.00;;;;;9.65;53.04;102282.38;5014114;28;45428;-74
2022/03/20 06:54:50;;;;;;;;;13.00;11.00;;;;;9.74;52.64;102295.97;5015585;28;46171;-73
2022/03/20 06:57:20;;;;;;;;;9.50;8.00;;;;;9.72;52.18;102292.34;5015544;28;45314;-77
2022/03/20 06:59:46;;;;;;;;;11.50;11.00;;;;;9.65;52.25;102285.84;5016316;28;45451;-78
2022/03/20 07:02:12;;;;;;;;;10.00;8.25;;;;;9.55;52.13;102289.47;5018489;27;45270;-73
2022/03/20 07:04:37;;;;;;;;;18.00;16.75;;;;;9.52;53.07;102296.06;5024404;28;46465;-74
2022/03/20 07:07:03;;;;;;;;;11.00;9.75;;;;;9.39;53.00;102281.34;5022464;28;44607;-77
2022/03/20 07:09:29;;;;;;;;;14.75;12.50;;;;;9.39;53.24;102292.63;5025872;27;45455;-74
2022/03/20 07:11:54;;;;;;;;;14.75;14.00;;;;;9.36;53.96;102299.22;5022744;28;45536;-77
2022/03/20 07:14:20;;;;;;;;;16.25;12.00;;;;;9.37;54.06;102285.50;5018808;28;45296;-72
2022/03/20 07:16:46;;;;;;;;;21.00;14.50;;;;;9.34;54.18;102286.19;5016158;28;45434;-77
2022/03/20 07:19:11;;;;;;;;;17.25;14.00;;;;;9.40;54.12;102299.56;5018015;27;45294;-72
2022/03/20 07:21:37;;;;;;;;;14.50;13.00;;;;;9.37;53.97;102296.75;5017384;28;45245;-72
2022/03/20 07:24:04;;;;;;;;;11.00;11.00;;;;;9.43;54.09;102298.91;5013347;28;45474;-73
2022/03/20 07:29:31;;;;;;;;;15.50;14.25;;;;;9.51;54.45;102299.44;5014265;28;45379;-73
2022/03/20 07:32:02;;;;;;;;;17.00;15.00;;;;;9.58;54.36;102302.59;5015047;28;45308;-73
2022/03/20 07:34:29;;;;;;;;;14.00;13.00;;;;;9.61;54.10;102299.31;5013411;28;46310;-72
2022/03/20 07:36:55;;;;;;;;;19.75;16.00;;;;;9.50;54.13;102293.38;5013223;28;45490;-73
2022/03/20 07:39:20;;;;;;;;;16.50;13.25;;;;;9.52;54.23;102294.41;5013616;27;45409;-77
2022/03/20 07:41:46;;;;;;;;;20.50;16.75;;;;;9.51;54.41;102308.13;5014480;28;45366;-74
2022/03/20 07:44:12;;;;;;;;;19.75;18.25;;;;;9.50;54.71;102306.31;5013684;27;45996;-76
2022/03/20 07:46:40;;;;;;;;;36.50;29.75;;;;;9.54;55.30;102307.44;5013542;27;45340;-74
2022/03/20 07:49:07;;;;;;;;;27.00;23.50;;;;;9.62;54.93;102316.63;4999691;28;45211;-80
2022/03/20 07:51:32;;;;;;;;;24.25;22.00;;;;;9.57;55.59;102310.25;4992829;28;45239;-81
2022/03/20 07:53:58;;;;;;;;;23.50;18.50;;;;;9.57;55.33;102300.78;4992746;27;46467;-74
2022/03/20 07:56:24;;;;;;;;;22.50;16.25;;;;;9.62;55.22;102310.59;4992724;28;45312;-73
2022/03/20 07:58:50;;;;;;;;;42.00;34.50;;;;;9.51;56.19;102284.84;4993040;28;45383;-75
2022/03/20 08:01:16;;;;;;;;;27.75;23.25;;;;;9.68;55.61;102301.59;4993243;28;45445;-74
2022/03/20 08:03:42;;;;;;;;;25.00;23.00;;;;;9.68;55.29;102304.16;4990622;28;46193;-84
2022/03/20 08:06:08;;;;;;;;;30.00;23.75;;;;;9.70;56.10;102299.09;4997980;28;45467;-86
2022/03/20 08:08:34;;;;;;;;;22.75;22.25;;;;;9.68;56.14;102293.81;5000073;28;45326;-83
2022/03/20 08:11:00;;;;;;;;;22.75;21.75;;;;;9.71;55.54;102299.22;5003219;28;45729;-80
2022/03/20 08:13:25;;;;;;;;;29.75;22.75;;;;;9.75;55.62;102301.22;4987778;28;47057;-79
2022/03/20 08:15:51;;;;;;;;;23.50;21.50;;;;;9.71;56.37;102286.31;5007848;28;44769;-80
2022/03/20 08:18:17;;;;;;;;;26.50;23.50;;;;;9.83;55.78;102295.69;5005086;28;45415;-82
2022/03/20 08:20:42;;;;;;;;;31.25;24.75;;;;;9.84;56.23;102290.66;4980613;28;46634;-82
2022/03/20 08:23:08;;;;;;;;;24.00;22.75;;;;;9.82;56.14;102289.66;5000873;28;46456;-77
2022/03/20 08:25:34;;;;;;;;;28.75;24.75;;;;;9.93;56.40;102305.94;5001255;27;45460;-74
2022/03/20 08:28:00;;;;;;;;;24.75;24.50;;;;;9.95;56.82;102293.09;4996372;28;45454;-75
2022/03/20 08:30:26;;;;;;;;;23.75;22.75;;;;;10.03;56.71;102307.47;5099390;27;45414;-76
2022/03/20 08:32:53;;;;;;;;;28.25;25.00;;;;;9.94;57.07;102275.78;5099654;27;45433;-80
2022/03/20 08:35:19;;;;;;;;;32.50;28.50;;;;;10.09;56.47;102302.75;5011646;27;45860;-76
2022/03/20 08:37:46;;;;;;;;;27.25;25.75;;;;;10.11;56.42;102300.28;5000666;27;45288;-84
2022/03/20 08:40:17;;;;;;;;;30.25;22.50;;;;;10.13;56.67;102302.16;4990482;28;45000;-81
2022/03/20 08:42:47;;;;;;;;;31.75;24.25;;;;;10.07;56.37;102286.22;4999430;28;46497;-79
2022/03/20 08:45:13;;;;;;;;;31.75;25.00;;;;;10.18;55.54;102308.59;4977614;28;45474;-81
2022/03/20 08:47:40;;;;;;;;;25.25;21.50;;;;;10.16;55.63;102301.47;4996767;28;45402;-81
2022/03/20 08:50:07;;;;;;;;;30.00;26.75;;;;;10.04;56.32;102280.81;4996695;28;45518;-78
2022/03/20 08:52:33;;;;;;;;;34.25;31.25;;;;;10.22;56.82;102305.41;5000753;27;46294;-80
2022/03/20 08:54:59;;;;;;;;;26.00;25.50;;;;;10.31;56.31;102309.44;5091538;27;45880;-80
2022/03/20 08:57:28;;;;;;;;;29.00;24.00;;;;;10.18;56.30;102284.38;4994707;28;45446;-78
2022/03/20 08:59:57;;;;;;;;;40.25;33.75;;;;;10.32;56.96;102299.19;4995204;28;45495;-78
2022/03/20 09:02:22;;;;;;;;;39.00;32.50;;;;;10.39;56.40;102305.72;4976212;28;46519;-78
2022/03/20 09:04:48;;;;;;;;;41.00;32.75;;;;;10.47;56.27;102319.22;4976574;28;45444;-78
2022/03/20 09:07:14;;;;;;;;;34.00;31.50;;;;;10.47;56.31;102306.28;4994428;28;45311;-78
2022/03/20 09:09:39;;;;;;;;;33.25;29.75;;;;;10.57;55.77;102312.97;5035422;27;45299;-77
2022/03/20 09:12:05;;;;;;;;;32.00;28.25;;;;;10.60;56.03;102305.41;5012159;27;45570;-77
2022/03/20 09:14:31;;;;;;;;;30.25;25.75;;;;;10.65;55.80;102307.53;4996599;27;45452;-79
2022/03/20 09:19:41;;;;;;;;;34.50;30.25;;;;;10.69;55.56;102316.41;5002676;27;45418;-77
2022/03/20 09:22:06;;;;;;;;;36.25;31.25;;;;;10.75;54.55;102319.41;5009659;27;46074;-77
2022/03/20 09:24:33;;;;;;;;;33.75;28.75;;;;;10.72;55.44;102313.13;5096812;27;45248;-77
2022/03/20 09:27:02;;;;;;;;;34.00;28.25;;;;;10.82;54.63;102319.06;5097976;27;45413;-77
2022/03/20 09:29:28;;;;;;;;;44.00;36.50;;;;;10.89;55.35;102322.03;5098556;27;45506;-75
2022/03/20 09:31:54;;;;;;;;;35.00;30.75;;;;;10.87;54.09;102310.66;5098302;27;46008;-76
2022/03/20 09:34:20;;;;;;;;;36.75;28.75;;;;;10.86;54.18;102314.06;5098255;27;45338;-76
2022/03/20 09:36:45;;;;;;;;;29.50;27.50;;;;;10.84;53.96;102311.38;5098831;27;45214;-79
2022/03/20 09:39:11;;;;;;;;;27.50;25.00;;;;;10.79;53.75;102298.09;5027425;27;45338;-75
2022/03/20 09:41:43;;;;;;;;;32.25;30.50;;;;;10.85;54.12;102308.00;4993790;28;46062;-77
2022/03/20 09:44:10;;;;;;;;;40.50;32.50;;;;;10.91;54.81;102313.56;4994207;28;45902;-75
2022/03/20 09:46:36;;;;;;;;;40.75;31.75;;;;;10.94;54.39;102306.00;5031325;27;45607;-76
2022/03/20 09:49:06;;;;;;;;;35.50;29.50;;;;;11.07;54.33;102314.63;5097143;27;45411;-75
2022/03/20 09:51:33;;;;;;;;;38.75;30.75;;;;;11.01;53.68;102288.31;5097905;27;45428;-75
2022/03/20 09:53:58;;;;;;;;;33.00;30.25;;;;;11.16;53.90;102302.25;5098136;27;45471;-75
2022/03/20 09:56:24;;;;;;;;;27.75;25.50;;;;;11.27;52.50;102315.97;5080397;27;45382;-77
2022/03/20 09:58:50;;;;;;;;;45.00;35.00;;;;;11.30;52.34;102305.75;5098176;27;45230;-75
2022/03/20 10:01:17;;;;;;;;;33.25;26.75;;;;;11.27;51.82;102314.25;5097536;27;45903;-75
2022/03/20 10:03:43;;;;;;;;;32.50;27.75;;;;;11.25;51.41;102305.47;5097365;27;45832;-76
2022/03/20 10:06:17;;;;;;;;;33.25;29.25;;;;;11.25;51.87;102297.69;5002043;28;45347;-76
2022/03/20 10:08:55;;;;;;;;;34.50;28.25;;;;;11.35;51.05;102324.22;4995451;27;45315;-77
2022/03/20 10:11:20;;;;;;;;;32.75;29.25;;;;;11.19;50.64;102296.38;4993254;27;45272;-77
2022/03/20 10:14:06;;;;;;;;;30.25;28.00;;;;;11.28;50.97;102313.44;4994062;27;45517;-77
2022/03/20 10:16:31;;;;;;;;;29.00;26.00;;;;;11.18;51.42;102304.94;5070819;27;45360;-76
2022/03/20 10:18:57;;;;;;;;;32.25;30.25;;;;;11.24;51.91;102305.38;5097392;27;45459;-74
2022/03/20 10:21:45;;;;;;;;;34.25;32.25;;;;;11.34;52.29;102307.78;5096660;27;45448;-74
2022/03/20 10:24:18;;;;;;;;;38.50;32.50;;;;;11.41;51.05;102302.19;5096933;27;45401;-78
2022/03/20 10:26:49;;;;;;;;;41.75;34.50;;;;;11.56;50.83;102310.06;5069147;27;45517;-84
2022/03/20 10:29:17;;;;;;;;;27.50;27.00;;;;;11.52;49.91;102294.19;4979341;28;45420;-76
2022/03/20 10:31:55;;;;;;;;;29.00;25.50;;;;;11.61;49.69;102297.38;4993740;27;46242;-81
2022/03/20 10:34:21;;;;;;;;;38.75;33.50;;;;;11.70;48.79;102295.41;4993825;28;45760;-78
2022/03/20 10:36:50;;;;;;;;;28.50;24.00;;;;;11.84;48.26;102305.75;4993709;27;45414;-75
2022/03/20 10:39:19;;;;;;;;;39.75;30.75;;;;;11.76;48.43;102276.75;4994584;28;45458;-78
2022/03/20 10:41:46;;;;;;;;;29.75;27.50;;;;;11.94;47.85;102308.13;4993711;28;45469;-76
2022/03/20 10:44:18;;;;;;;;;26.25;22.25;;;;;11.98;46.82;102307.56;5059241;27;45498;-75
2022/03/20 10:46:58;;;;;;;;;33.50;27.00;;;;;12.03;46.23;102302.66;5096124;27;45525;-75
2022/03/20 10:49:24;;;;;;;;;30.50;26.75;;;;;12.06;46.92;102306.34;5097096;27;45375;-78
2022/03/20 10:52:08;;;;;;;;;29.00;24.50;;;;;12.11;46.31;102303.16;5096463;27;46220;-78
2022/03/20 10:54:46;;;;;;;;;27.75;24.00;;;;;12.15;45.32;102302.56;5096121;27;45504;-79
2022/03/20 10:57:14;;;;;;;;;29.00;24.50;;;;;12.22;43.86;102307.31;5096473;27;45347;-76
2022/03/20 10:59:41;;;;;;;;;21.00;19.25;;;;;12.22;42.38;102300.41;5077250;27;45371;-76
2022/03/20 11:02:20;;;;;;;;;22.25;17.25;;;;;12.23;41.48;102298.72;5097032;27;45335;-76
2022/03/20 11:04:46;;;;;;;;;32.50;30.25;;;;;12.29;42.16;102298.22;5097257;27;45834;-77
2022/03/20 11:07:16;;;;;;;;;24.25;21.00;;;;;12.34;41.35;102291.59;5096648;27;45284;-76
2022/03/20 11:09:49;;;;;;;;;29.25;25.00;;;;;12.33;41.82;102288.09;5097005;27;45415;-76
2022/03/20 11:12:21;;;;;;;;;25.75;24.75;;;;;12.41;42.43;102288.56;5093710;27;46358;-76
2022/03/20 11:14:48;;;;;;;;;29.25;25.00;;;;;12.47;42.28;102290.66;5097240;27;45279;-76
2022/03/20 11:17:17;;;;;;;;;28.25;24.75;;;;;12.50;41.50;102289.13;5098160;27;45402;-76
2022/03/20 11:19:49;;;;;;;;;22.50;19.00;;;;;12.56;41.51;102293.81;5098179;27;45624;-76
2022/03/20 11:22:18;;;;;;;;;25.25;21.75;;;;;12.60;40.99;102287.97;5097206;27;45240;-76
2022/03/20 11:24:50;;;;;;;;;20.50;20.50;;;;;12.62;41.11;102290.69;5097050;27;45178;-77
2022/03/20 11:27:23;;;;;;;;;23.75;22.00;;;;;12.67;40.40;102287.56;5085195;27;44728;-74
2022/03/20 11:30:02;;;;;;;;;27.50;22.00;;;;;12.65;40.27;102270.97;5098050;27;45386;-77
2022/03/20 11:32:29;;;;;;;;;26.75;23.75;;;;;12.65;40.54;102276.16;5096044;27;45974;-76
2022/03/20 11:34:56;;;;;;;;;27.75;25.25;;;;;12.68;40.47;102278.03;5096435;27;45188;-77
2022/03/20 11:37:21;;;;;;;;;23.50;22.25;;;;;12.63;40.20;102256.09;5080595;27;45251;-77
2022/03/20 11:40:10;;;;;;;;;25.25;21.75;;;;;12.86;39.05;102275.66;5094273;27;45444;-77
2022/03/20 11:42:37;;;;;;;;;27.75;18.00;;;;;12.88;39.26;102271.44;5096353;27;45550;-79
2022/03/20 11:45:03;;;;;;;;;21.50;20.75;;;;;12.90;39.20;102288.03;5095240;27;45508;-75
2022/03/20 11:47:30;;;;;;;;;23.50;20.00;;;;;12.82;39.64;102258.06;5095441;27;45322;-77
2022/03/20 11:50:23;;;;;;;;;26.50;21.75;;;;;12.99;38.80;102274.66;4983070;28;45660;-78